AIC4217 VABB-OMDB
Flight info
| Callsign | AIC4217 |
|---|---|
| Flight time | N/A |
| Altitude | 40000 |
| Route | RAXET2A SAKUN V2 SUGID DCT VUSET A454 PASOV B540 MIVEK P574 IMPED |
| Aircraft | A359/H-SDE2E3GHIJ3J4J5LM1ORWXY/LB1D1 |
Departure
| Time | 2026-05-08 08:14 |
|---|---|
| Airport | Chhatrapati Shivaji Maharaj International Airport (VABB) |
Arrival
| Time | N/A |
|---|---|
| Airport | Dubai International Airport (OMDB) |
| Time | Latitude | Longitude | Altitude | Speed | Heading |
|---|---|---|---|---|---|
| 2026-05-08 08:03 | 19.09335 | 72.87028 | 40 ft | 0 kts | 63° |
| 2026-05-08 08:03 | 19.09331 | 72.87018 | 40 ft | 2 kts | 63° |
| 2026-05-08 08:03 | 19.09324 | 72.87004 | 40 ft | 2 kts | 63° |
| 2026-05-08 08:04 | 19.09317 | 72.86990 | 40 ft | 2 kts | 63° |
| 2026-05-08 08:04 | 19.09312 | 72.86974 | 39 ft | 2 kts | 82° |
| 2026-05-08 08:04 | 19.09312 | 72.86958 | 39 ft | 2 kts | 99° |
| 2026-05-08 08:04 | 19.09315 | 72.86942 | 40 ft | 2 kts | 116° |
| 2026-05-08 08:05 | 19.09324 | 72.86929 | 40 ft | 1 kts | 132° |
| 2026-05-08 08:05 | 19.09324 | 72.86927 | 40 ft | 1 kts | 134° |
| 2026-05-08 08:05 | 19.09306 | 72.86948 | 39 ft | 2 kts | 135° |
| 2026-05-08 08:05 | 19.09302 | 72.86952 | 39 ft | 0 kts | 135° |
| 2026-05-08 08:08 | 19.09301 | 72.86953 | 39 ft | 0 kts | 135° |
| 2026-05-08 08:08 | 19.09289 | 72.86966 | 39 ft | 3 kts | 135° |
| 2026-05-08 08:09 | 19.09264 | 72.86994 | 38 ft | 6 kts | 126° |
| 2026-05-08 08:09 | 19.09243 | 72.87045 | 38 ft | 8 kts | 104° |
| 2026-05-08 08:09 | 19.09236 | 72.87109 | 38 ft | 10 kts | 92° |
| 2026-05-08 08:09 | 19.09236 | 72.87119 | 38 ft | 10 kts | 91° |
| 2026-05-08 08:10 | 19.09235 | 72.87202 | 38 ft | 11 kts | 92° |
| 2026-05-08 08:10 | 19.09175 | 72.87256 | 37 ft | 13 kts | 168° |
| 2026-05-08 08:10 | 19.09074 | 72.87284 | 35 ft | 16 kts | 137° |
| 2026-05-08 08:10 | 19.09051 | 72.87360 | 34 ft | 11 kts | 91° |
| 2026-05-08 08:11 | 19.09053 | 72.87450 | 34 ft | 12 kts | 88° |
| 2026-05-08 08:11 | 19.09055 | 72.87548 | 35 ft | 13 kts | 89° |
| 2026-05-08 08:11 | 19.09057 | 72.87647 | 37 ft | 13 kts | 89° |
| 2026-05-08 08:11 | 19.09055 | 72.87755 | 37 ft | 14 kts | 100° |
| 2026-05-08 08:12 | 19.08993 | 72.87804 | 37 ft | 10 kts | 171° |
| 2026-05-08 08:12 | 19.08918 | 72.87794 | 36 ft | 12 kts | 204° |
| 2026-05-08 08:12 | 19.08871 | 72.87727 | 35 ft | 12 kts | 281° |
| 2026-05-08 08:12 | 19.08881 | 72.87627 | 34 ft | 14 kts | 270° |
| 2026-05-08 08:13 | 19.08880 | 72.87511 | 33 ft | 16 kts | 269° |
| 2026-05-08 08:13 | 19.08878 | 72.87324 | 31 ft | 51 kts | 269° |
| 2026-05-08 08:13 | 19.08869 | 72.86690 | 39 ft | 116 kts | 269° |
| 2026-05-08 08:13 | 19.08854 | 72.85625 | 65 ft | 165 kts | 270° |
| 2026-05-08 08:14 | 19.08842 | 72.84395 | 630 ft | 169 kts | 270° |
| 2026-05-08 08:14 | 19.08837 | 72.83099 | 1126 ft | 182 kts | 271° |
| 2026-05-08 08:14 | 19.08840 | 72.81708 | 1659 ft | 198 kts | 271° |
| 2026-05-08 08:14 | 19.08831 | 72.80190 | 2187 ft | 209 kts | 271° |
| 2026-05-08 08:15 | 19.08821 | 72.78587 | 2567 ft | 224 kts | 270° |
| 2026-05-08 08:15 | 19.08782 | 72.76862 | 2956 ft | 240 kts | 270° |
| 2026-05-08 08:15 | 19.08741 | 72.75024 | 3353 ft | 256 kts | 271° |
| 2026-05-08 08:15 | 19.08908 | 72.73083 | 3879 ft | 266 kts | 283° |
| 2026-05-08 08:16 | 19.09447 | 72.71188 | 4582 ft | 269 kts | 294° |
| 2026-05-08 08:16 | 19.10309 | 72.69405 | 5320 ft | 272 kts | 300° |
| 2026-05-08 08:16 | 19.11174 | 72.67590 | 6064 ft | 277 kts | 294° |
| 2026-05-08 08:16 | 19.11838 | 72.65665 | 6803 ft | 282 kts | 285° |
| 2026-05-08 08:17 | 19.12195 | 72.63593 | 7569 ft | 286 kts | 279° |
| 2026-05-08 08:17 | 19.12454 | 72.61465 | 8335 ft | 291 kts | 278° |
| 2026-05-08 08:17 | 19.12712 | 72.59306 | 9115 ft | 295 kts | 278° |
| 2026-05-08 08:17 | 19.12981 | 72.57147 | 9894 ft | 299 kts | 278° |
| 2026-05-08 08:18 | 19.13271 | 72.54922 | 10515 ft | 309 kts | 278° |
| 2026-05-08 08:18 | 19.13586 | 72.52571 | 10940 ft | 326 kts | 278° |
| 2026-05-08 08:18 | 19.13923 | 72.50095 | 11339 ft | 343 kts | 278° |
| 2026-05-08 08:18 | 19.14273 | 72.47546 | 11706 ft | 359 kts | 278° |
| 2026-05-08 08:19 | 19.14648 | 72.44833 | 12047 ft | 376 kts | 278° |
| 2026-05-08 08:19 | 19.15036 | 72.42023 | 12514 ft | 387 kts | 278° |
| 2026-05-08 08:19 | 19.15434 | 72.39146 | 13199 ft | 392 kts | 278° |
| 2026-05-08 08:19 | 19.15834 | 72.36253 | 13907 ft | 396 kts | 278° |
| 2026-05-08 08:20 | 19.16239 | 72.33323 | 14594 ft | 399 kts | 278° |
| 2026-05-08 08:20 | 19.16643 | 72.30386 | 15258 ft | 403 kts | 278° |
| 2026-05-08 08:20 | 19.17052 | 72.27422 | 15912 ft | 407 kts | 278° |
| 2026-05-08 08:20 | 19.17465 | 72.24423 | 16562 ft | 411 kts | 278° |
| 2026-05-08 08:21 | 19.17885 | 72.21369 | 17209 ft | 415 kts | 278° |
| 2026-05-08 08:21 | 19.18306 | 72.18312 | 17842 ft | 419 kts | 278° |
| 2026-05-08 08:21 | 19.18730 | 72.15237 | 18464 ft | 422 kts | 278° |
| 2026-05-08 08:21 | 19.19159 | 72.12118 | 19081 ft | 426 kts | 278° |
| 2026-05-08 08:22 | 19.19591 | 72.08974 | 19689 ft | 430 kts | 278° |
| 2026-05-08 08:22 | 19.20026 | 72.05805 | 20291 ft | 433 kts | 278° |
| 2026-05-08 08:22 | 19.20465 | 72.02599 | 20888 ft | 437 kts | 278° |
| 2026-05-08 08:22 | 19.20904 | 71.99390 | 21474 ft | 440 kts | 278° |
| 2026-05-08 08:23 | 19.21355 | 71.96091 | 22065 ft | 444 kts | 278° |
| 2026-05-08 08:23 | 19.21804 | 71.92802 | 22642 ft | 447 kts | 278° |
| 2026-05-08 08:23 | 19.22254 | 71.89500 | 23205 ft | 450 kts | 278° |
| 2026-05-08 08:23 | 19.22705 | 71.86186 | 23752 ft | 454 kts | 277° |
| 2026-05-08 08:24 | 19.23163 | 71.82820 | 24280 ft | 457 kts | 277° |
| 2026-05-08 08:24 | 19.23620 | 71.79447 | 24789 ft | 460 kts | 277° |
| 2026-05-08 08:24 | 19.24075 | 71.76093 | 25275 ft | 463 kts | 277° |
| 2026-05-08 08:24 | 19.24541 | 71.72651 | 25753 ft | 466 kts | 277° |
| 2026-05-08 08:25 | 19.25005 | 71.69217 | 26209 ft | 468 kts | 277° |
| 2026-05-08 08:25 | 19.25443 | 71.65974 | 26623 ft | 471 kts | 277° |
| 2026-05-08 08:25 | 19.25910 | 71.62505 | 27048 ft | 473 kts | 277° |
| 2026-05-08 08:25 | 19.26384 | 71.58987 | 27462 ft | 476 kts | 277° |
| 2026-05-08 08:26 | 19.26851 | 71.55506 | 27857 ft | 478 kts | 277° |
| 2026-05-08 08:26 | 19.27326 | 71.51967 | 28244 ft | 481 kts | 277° |
| 2026-05-08 08:26 | 19.27802 | 71.48413 | 28618 ft | 483 kts | 277° |
| 2026-05-08 08:26 | 19.28282 | 71.44827 | 28982 ft | 485 kts | 277° |
| 2026-05-08 08:27 | 19.28762 | 71.41230 | 29334 ft | 487 kts | 277° |
| 2026-05-08 08:27 | 19.29240 | 71.37646 | 29674 ft | 489 kts | 277° |
| 2026-05-08 08:27 | 19.29724 | 71.34016 | 30018 ft | 491 kts | 277° |
| 2026-05-08 08:27 | 19.30200 | 71.30425 | 30470 ft | 489 kts | 277° |
| 2026-05-08 08:28 | 19.30679 | 71.26801 | 30974 ft | 487 kts | 277° |
| 2026-05-08 08:28 | 19.31155 | 71.23204 | 31459 ft | 485 kts | 277° |
| 2026-05-08 08:28 | 19.31623 | 71.19657 | 31912 ft | 483 kts | 277° |
| 2026-05-08 08:28 | 19.32089 | 71.16127 | 32347 ft | 481 kts | 277° |
| 2026-05-08 08:29 | 19.32558 | 71.12578 | 32775 ft | 480 kts | 277° |
| 2026-05-08 08:29 | 19.33023 | 71.09044 | 33194 ft | 478 kts | 277° |
| 2026-05-08 08:29 | 19.33487 | 71.05522 | 33603 ft | 477 kts | 277° |
| 2026-05-08 08:29 | 19.33951 | 71.01986 | 34004 ft | 476 kts | 277° |
| 2026-05-08 08:30 | 19.34411 | 70.98482 | 34380 ft | 474 kts | 277° |
| 2026-05-08 08:30 | 19.34865 | 70.95012 | 34724 ft | 474 kts | 277° |
| 2026-05-08 08:30 | 19.35780 | 70.88015 | 35372 ft | 473 kts | 277° |
| 2026-05-08 08:31 | 19.36234 | 70.84530 | 35684 ft | 473 kts | 277° |
| 2026-05-08 08:31 | 19.36689 | 70.81037 | 35990 ft | 472 kts | 277° |
| 2026-05-08 08:31 | 19.37143 | 70.77541 | 36289 ft | 472 kts | 277° |
| 2026-05-08 08:31 | 19.37598 | 70.74043 | 36577 ft | 471 kts | 277° |
| 2026-05-08 08:32 | 19.38047 | 70.70584 | 36845 ft | 471 kts | 277° |
| 2026-05-08 08:32 | 19.38500 | 70.67086 | 37101 ft | 471 kts | 277° |
| 2026-05-08 08:32 | 19.38944 | 70.63644 | 37343 ft | 471 kts | 277° |
| 2026-05-08 08:32 | 19.39397 | 70.60140 | 37583 ft | 471 kts | 277° |
| 2026-05-08 08:33 | 19.39846 | 70.56656 | 37815 ft | 471 kts | 277° |
| 2026-05-08 08:33 | 19.40288 | 70.53219 | 38035 ft | 471 kts | 277° |
| 2026-05-08 08:33 | 19.40728 | 70.49793 | 38227 ft | 472 kts | 277° |
| 2026-05-08 08:33 | 19.41177 | 70.46291 | 38396 ft | 473 kts | 277° |
| 2026-05-08 08:34 | 19.41622 | 70.42820 | 38554 ft | 474 kts | 277° |
| 2026-05-08 08:34 | 19.42069 | 70.39320 | 38710 ft | 475 kts | 277° |
| 2026-05-08 08:34 | 19.42515 | 70.35824 | 38864 ft | 476 kts | 277° |
| 2026-05-08 08:34 | 19.42956 | 70.32357 | 39012 ft | 477 kts | 277° |
| 2026-05-08 08:35 | 19.43401 | 70.28847 | 39158 ft | 478 kts | 277° |
| 2026-05-08 08:35 | 19.43838 | 70.25391 | 39296 ft | 479 kts | 277° |
| 2026-05-08 08:35 | 19.44280 | 70.21900 | 39430 ft | 480 kts | 277° |
| 2026-05-08 08:35 | 19.44725 | 70.18376 | 39562 ft | 480 kts | 277° |
| 2026-05-08 08:36 | 19.45173 | 70.14831 | 39690 ft | 481 kts | 277° |
| 2026-05-08 08:36 | 19.45615 | 70.11331 | 39812 ft | 482 kts | 277° |
| 2026-05-08 08:36 | 19.46512 | 70.04207 | 39847 ft | 484 kts | 277° |
| 2026-05-08 08:37 | 19.47407 | 69.97078 | 39851 ft | 484 kts | 277° |
| 2026-05-08 08:37 | 19.48303 | 69.89921 | 39852 ft | 484 kts | 277° |
| 2026-05-08 08:38 | 19.49193 | 69.82788 | 39852 ft | 484 kts | 277° |
| 2026-05-08 08:38 | 19.50087 | 69.75603 | 39852 ft | 484 kts | 277° |
| 2026-05-08 08:39 | 19.50972 | 69.68467 | 39852 ft | 484 kts | 277° |
| 2026-05-08 08:39 | 19.51857 | 69.61310 | 39852 ft | 484 kts | 277° |
| 2026-05-08 08:40 | 19.52740 | 69.54152 | 39852 ft | 484 kts | 277° |
| 2026-05-08 08:40 | 19.53616 | 69.47018 | 39852 ft | 484 kts | 277° |
| 2026-05-08 08:41 | 19.54789 | 69.39903 | 39852 ft | 484 kts | 283° |
| 2026-05-08 08:41 | 19.56666 | 69.32873 | 39852 ft | 491 kts | 288° |
| 2026-05-08 08:42 | 19.59245 | 69.26058 | 39852 ft | 496 kts | 295° |
| 2026-05-08 08:42 | 19.62342 | 69.19398 | 39852 ft | 496 kts | 296° |
| 2026-05-08 08:43 | 19.65472 | 69.12788 | 39852 ft | 496 kts | 296° |
| 2026-05-08 08:43 | 19.68595 | 69.06163 | 39852 ft | 496 kts | 296° |
| 2026-05-08 08:44 | 19.71704 | 68.99542 | 39852 ft | 494 kts | 296° |
| 2026-05-08 08:44 | 19.74795 | 68.92950 | 39852 ft | 494 kts | 296° |
| 2026-05-08 08:45 | 19.77892 | 68.86337 | 39852 ft | 495 kts | 296° |
| 2026-05-08 08:45 | 19.81003 | 68.79686 | 39852 ft | 495 kts | 296° |
| 2026-05-08 08:46 | 19.84080 | 68.73097 | 39852 ft | 495 kts | 296° |
| 2026-05-08 08:46 | 19.87170 | 68.66475 | 39852 ft | 495 kts | 296° |
| 2026-05-08 08:47 | 19.90253 | 68.59859 | 39852 ft | 495 kts | 296° |
| 2026-05-08 08:47 | 19.93334 | 68.53238 | 39851 ft | 495 kts | 296° |
| 2026-05-08 08:48 | 19.96426 | 68.46587 | 39851 ft | 495 kts | 296° |
| 2026-05-08 08:48 | 19.99493 | 68.39980 | 39851 ft | 495 kts | 296° |
| 2026-05-08 08:49 | 20.02576 | 68.33331 | 39852 ft | 495 kts | 296° |
| 2026-05-08 08:49 | 20.05627 | 68.26712 | 39852 ft | 495 kts | 296° |
| 2026-05-08 08:50 | 20.08688 | 68.20074 | 39852 ft | 495 kts | 296° |
| 2026-05-08 08:50 | 20.11717 | 68.13538 | 39852 ft | 495 kts | 296° |
| 2026-05-08 08:51 | 20.14808 | 68.06906 | 39852 ft | 495 kts | 296° |
| 2026-05-08 08:51 | 20.17867 | 68.00304 | 39852 ft | 495 kts | 296° |
| 2026-05-08 08:52 | 20.20974 | 67.93567 | 39852 ft | 495 kts | 296° |
| 2026-05-08 08:52 | 20.24085 | 67.86807 | 39852 ft | 495 kts | 296° |
| 2026-05-08 08:53 | 20.27206 | 67.80013 | 39852 ft | 494 kts | 296° |
| 2026-05-08 08:53 | 20.30404 | 67.73041 | 39852 ft | 495 kts | 296° |
| 2026-05-08 08:54 | 20.33567 | 67.66138 | 39852 ft | 495 kts | 296° |
| 2026-05-08 08:54 | 20.36754 | 67.59174 | 39852 ft | 495 kts | 296° |
| 2026-05-08 08:55 | 20.39960 | 67.52157 | 39852 ft | 495 kts | 296° |
| 2026-05-08 08:55 | 20.43132 | 67.45207 | 39852 ft | 495 kts | 296° |
| 2026-05-08 08:56 | 20.46328 | 67.38193 | 39852 ft | 494 kts | 296° |
| 2026-05-08 08:56 | 20.49466 | 67.31287 | 39852 ft | 495 kts | 296° |
| 2026-05-08 08:57 | 20.52575 | 67.24418 | 39852 ft | 495 kts | 296° |
| 2026-05-08 08:57 | 20.55738 | 67.17436 | 39852 ft | 495 kts | 296° |
| 2026-05-08 08:58 | 20.58864 | 67.10540 | 39852 ft | 494 kts | 296° |
| 2026-05-08 08:58 | 20.61929 | 67.03770 | 39852 ft | 495 kts | 295° |
| 2026-05-08 08:59 | 20.65091 | 66.96780 | 39851 ft | 496 kts | 295° |
| 2026-05-08 08:59 | 20.68234 | 66.89820 | 39852 ft | 496 kts | 295° |
| 2026-05-08 09:00 | 20.71271 | 66.83086 | 39852 ft | 496 kts | 295° |
| 2026-05-08 09:00 | 20.74366 | 66.76217 | 39852 ft | 496 kts | 295° |
| 2026-05-08 09:01 | 20.77511 | 66.69226 | 39852 ft | 496 kts | 295° |
| 2026-05-08 09:01 | 20.80655 | 66.62229 | 39852 ft | 496 kts | 295° |
| 2026-05-08 09:02 | 20.83786 | 66.55254 | 39852 ft | 496 kts | 295° |
| 2026-05-08 09:02 | 20.86835 | 66.48452 | 39852 ft | 496 kts | 295° |
| 2026-05-08 09:03 | 20.89802 | 66.41823 | 39851 ft | 496 kts | 295° |
| 2026-05-08 09:03 | 20.92853 | 66.34998 | 39851 ft | 496 kts | 295° |
| 2026-05-08 09:04 | 20.95912 | 66.28120 | 39852 ft | 496 kts | 295° |
| 2026-05-08 09:04 | 20.98955 | 66.21278 | 39852 ft | 496 kts | 295° |
| 2026-05-08 09:05 | 21.02064 | 66.14291 | 39853 ft | 495 kts | 295° |
| 2026-05-08 09:05 | 21.05119 | 66.07418 | 39853 ft | 493 kts | 294° |
| 2026-05-08 09:06 | 21.08096 | 66.00713 | 39853 ft | 490 kts | 294° |
| 2026-05-08 09:06 | 21.11028 | 65.94107 | 39854 ft | 486 kts | 295° |
| 2026-05-08 09:07 | 21.13929 | 65.87629 | 39852 ft | 483 kts | 295° |
| 2026-05-08 09:07 | 21.16837 | 65.81097 | 39852 ft | 483 kts | 295° |
| 2026-05-08 09:08 | 21.19715 | 65.74599 | 39849 ft | 483 kts | 294° |
| 2026-05-08 09:08 | 21.22590 | 65.68092 | 39845 ft | 483 kts | 294° |
| 2026-05-08 09:09 | 21.25464 | 65.61573 | 39839 ft | 483 kts | 294° |
| 2026-05-08 09:09 | 21.28320 | 65.55087 | 39834 ft | 483 kts | 294° |
| 2026-05-08 09:10 | 21.31182 | 65.48576 | 39830 ft | 483 kts | 294° |
| 2026-05-08 09:10 | 21.34044 | 65.42059 | 39828 ft | 483 kts | 294° |
| 2026-05-08 09:11 | 21.36341 | 65.36822 | 39828 ft | 483 kts | 294° |
| 2026-05-08 09:11 | 21.38828 | 65.31134 | 39827 ft | 483 kts | 294° |
| 2026-05-08 09:12 | 21.41680 | 65.24589 | 39827 ft | 483 kts | 294° |
| 2026-05-08 09:12 | 21.44509 | 65.18101 | 39827 ft | 483 kts | 294° |
| 2026-05-08 09:13 | 21.47312 | 65.11674 | 39827 ft | 483 kts | 294° |
| 2026-05-08 09:13 | 21.50162 | 65.05136 | 39827 ft | 483 kts | 294° |
| 2026-05-08 09:14 | 21.53009 | 64.98597 | 39827 ft | 483 kts | 294° |
| 2026-05-08 09:14 | 21.55909 | 64.91930 | 39827 ft | 483 kts | 294° |
| 2026-05-08 09:15 | 21.58783 | 64.85313 | 39827 ft | 483 kts | 294° |
| 2026-05-08 09:15 | 21.61670 | 64.78655 | 39827 ft | 483 kts | 294° |
| 2026-05-08 09:16 | 21.64559 | 64.71984 | 39827 ft | 483 kts | 294° |
| 2026-05-08 09:16 | 21.67440 | 64.65324 | 39827 ft | 483 kts | 294° |
| 2026-05-08 09:17 | 21.70322 | 64.58651 | 39827 ft | 483 kts | 294° |
| 2026-05-08 09:17 | 21.73194 | 64.51994 | 39826 ft | 483 kts | 294° |
| 2026-05-08 09:18 | 21.76075 | 64.45308 | 39817 ft | 484 kts | 294° |
| 2026-05-08 09:18 | 21.78945 | 64.38637 | 39802 ft | 483 kts | 294° |
| 2026-05-08 09:19 | 21.81780 | 64.32031 | 39784 ft | 483 kts | 293° |
| 2026-05-08 09:19 | 21.84589 | 64.25456 | 39767 ft | 483 kts | 294° |
| 2026-05-08 09:20 | 21.87398 | 64.18885 | 39755 ft | 483 kts | 294° |
| 2026-05-08 09:20 | 21.90210 | 64.12310 | 39749 ft | 484 kts | 294° |
| 2026-05-08 09:21 | 21.93025 | 64.05722 | 39746 ft | 483 kts | 294° |
| 2026-05-08 09:23 | 22.02840 | 63.82688 | 39743 ft | 484 kts | 294° |
| 2026-05-08 09:23 | 22.05656 | 63.76061 | 39743 ft | 483 kts | 294° |
| 2026-05-08 09:24 | 22.08500 | 63.69358 | 39743 ft | 484 kts | 294° |
| 2026-05-08 09:24 | 22.11333 | 63.62693 | 39743 ft | 484 kts | 294° |
| 2026-05-08 09:25 | 22.14203 | 63.55987 | 39744 ft | 484 kts | 294° |
| 2026-05-08 09:25 | 22.17045 | 63.49301 | 39744 ft | 484 kts | 294° |
| 2026-05-08 09:26 | 22.19894 | 63.42564 | 39744 ft | 484 kts | 294° |
| 2026-05-08 09:26 | 22.22728 | 63.35842 | 39744 ft | 484 kts | 294° |
| 2026-05-08 09:27 | 22.25546 | 63.29125 | 39744 ft | 484 kts | 293° |
| 2026-05-08 09:27 | 22.28353 | 63.22423 | 39743 ft | 483 kts | 293° |
| 2026-05-08 09:28 | 22.31165 | 63.15711 | 39744 ft | 483 kts | 293° |
| 2026-05-08 09:28 | 22.33984 | 63.08980 | 39743 ft | 483 kts | 293° |
| 2026-05-08 09:29 | 22.36789 | 63.02277 | 39744 ft | 483 kts | 293° |
| 2026-05-08 09:29 | 22.39601 | 62.95548 | 39744 ft | 483 kts | 293° |
| 2026-05-08 09:30 | 22.42415 | 62.88804 | 39743 ft | 483 kts | 293° |
| 2026-05-08 09:30 | 22.45187 | 62.82154 | 39743 ft | 483 kts | 293° |
| 2026-05-08 09:31 | 22.47959 | 62.75494 | 39744 ft | 483 kts | 293° |
| 2026-05-08 09:31 | 22.50708 | 62.68879 | 39744 ft | 483 kts | 293° |
| 2026-05-08 09:32 | 22.53485 | 62.62189 | 39743 ft | 483 kts | 293° |
| 2026-05-08 09:32 | 22.56236 | 62.55550 | 39744 ft | 483 kts | 293° |
| 2026-05-08 09:33 | 22.58991 | 62.48895 | 39743 ft | 483 kts | 293° |
| 2026-05-08 09:33 | 22.61774 | 62.42159 | 39743 ft | 483 kts | 293° |
| 2026-05-08 09:34 | 22.64574 | 62.35376 | 39743 ft | 483 kts | 293° |
| 2026-05-08 09:34 | 22.67341 | 62.28639 | 39744 ft | 483 kts | 292° |
| 2026-05-08 09:35 | 22.70105 | 62.21900 | 39744 ft | 483 kts | 293° |
| 2026-05-08 09:35 | 22.72879 | 62.15140 | 39744 ft | 483 kts | 293° |
| 2026-05-08 09:36 | 22.75657 | 62.08367 | 39744 ft | 483 kts | 293° |
| 2026-05-08 09:36 | 22.78418 | 62.01628 | 39743 ft | 483 kts | 293° |
| 2026-05-08 09:37 | 22.81178 | 61.94884 | 39744 ft | 483 kts | 293° |
| 2026-05-08 09:37 | 22.83941 | 61.88121 | 39743 ft | 483 kts | 293° |
| 2026-05-08 09:38 | 22.86670 | 61.81432 | 39744 ft | 483 kts | 293° |
| 2026-05-08 09:38 | 22.89395 | 61.74745 | 39744 ft | 482 kts | 293° |
| 2026-05-08 09:39 | 22.92102 | 61.68097 | 39744 ft | 481 kts | 292° |
| 2026-05-08 09:39 | 22.94808 | 61.61436 | 39744 ft | 478 kts | 292° |
| 2026-05-08 09:40 | 22.97489 | 61.54830 | 39744 ft | 477 kts | 292° |
| 2026-05-08 09:40 | 23.00129 | 61.48314 | 39744 ft | 474 kts | 292° |
| 2026-05-08 09:41 | 23.02772 | 61.41780 | 39743 ft | 472 kts | 292° |
| 2026-05-08 09:41 | 23.05407 | 61.35256 | 39743 ft | 471 kts | 292° |
| 2026-05-08 09:42 | 23.08029 | 61.28728 | 39744 ft | 470 kts | 291° |
| 2026-05-08 09:42 | 23.10598 | 61.22335 | 39743 ft | 470 kts | 291° |
| 2026-05-08 09:43 | 23.13232 | 61.15856 | 39743 ft | 470 kts | 291° |
| 2026-05-08 09:43 | 23.15856 | 61.09371 | 39743 ft | 470 kts | 291° |
| 2026-05-08 09:44 | 23.18481 | 61.02845 | 39743 ft | 470 kts | 291° |
| 2026-05-08 09:44 | 23.21072 | 60.96384 | 39743 ft | 471 kts | 291° |
| 2026-05-08 09:45 | 23.23675 | 60.89878 | 39743 ft | 471 kts | 291° |
| 2026-05-08 09:45 | 23.26288 | 60.83337 | 39741 ft | 471 kts | 291° |
| 2026-05-08 09:46 | 23.28933 | 60.76704 | 39743 ft | 471 kts | 291° |
| 2026-05-08 09:46 | 23.31578 | 60.70064 | 39741 ft | 471 kts | 291° |
| 2026-05-08 09:47 | 23.34214 | 60.63440 | 39741 ft | 471 kts | 291° |
| 2026-05-08 09:47 | 23.36853 | 60.56794 | 39743 ft | 471 kts | 291° |
| 2026-05-08 09:48 | 23.39509 | 60.50098 | 39742 ft | 471 kts | 291° |
| 2026-05-08 09:48 | 23.42151 | 60.43424 | 39742 ft | 471 kts | 291° |
| 2026-05-08 09:49 | 23.44777 | 60.36784 | 39741 ft | 471 kts | 291° |
| 2026-05-08 09:49 | 23.47385 | 60.30164 | 39744 ft | 471 kts | 291° |
| 2026-05-08 09:50 | 23.49942 | 60.23650 | 39743 ft | 471 kts | 291° |
| 2026-05-08 09:50 | 23.52502 | 60.17137 | 39742 ft | 471 kts | 291° |
| 2026-05-08 09:51 | 23.55065 | 60.10614 | 39743 ft | 471 kts | 291° |
| 2026-05-08 09:51 | 23.57623 | 60.04097 | 39744 ft | 471 kts | 291° |
| 2026-05-08 09:52 | 23.60179 | 59.97577 | 39743 ft | 471 kts | 291° |
| 2026-05-08 09:52 | 23.62735 | 59.91048 | 39744 ft | 471 kts | 291° |
| 2026-05-08 09:53 | 23.65317 | 59.84442 | 39742 ft | 471 kts | 291° |
| 2026-05-08 09:53 | 23.67931 | 59.77743 | 39743 ft | 470 kts | 291° |
| 2026-05-08 09:54 | 23.70534 | 59.71066 | 39742 ft | 471 kts | 291° |
| 2026-05-08 09:54 | 23.73132 | 59.64391 | 39742 ft | 471 kts | 291° |
| 2026-05-08 09:55 | 23.75723 | 59.57725 | 39743 ft | 471 kts | 291° |
| 2026-05-08 09:55 | 23.78319 | 59.51029 | 39743 ft | 471 kts | 291° |
| 2026-05-08 09:56 | 23.80914 | 59.44336 | 39742 ft | 471 kts | 291° |
| 2026-05-08 09:56 | 23.83476 | 59.37717 | 39741 ft | 471 kts | 291° |
| 2026-05-08 09:57 | 23.87276 | 59.27861 | 39744 ft | 471 kts | 290° |
| 2026-05-08 09:57 | 23.89814 | 59.21275 | 39742 ft | 471 kts | 290° |
| 2026-05-08 09:58 | 23.92335 | 59.14697 | 39741 ft | 470 kts | 289° |
| 2026-05-08 09:58 | 23.94572 | 59.07969 | 39742 ft | 470 kts | 287° |
| 2026-05-08 09:59 | 23.96714 | 59.01263 | 39741 ft | 470 kts | 287° |
| 2026-05-08 09:59 | 23.98860 | 58.94549 | 39743 ft | 470 kts | 287° |
| 2026-05-08 10:00 | 24.00990 | 58.87894 | 39742 ft | 470 kts | 287° |
| 2026-05-08 10:00 | 24.03194 | 58.81007 | 39743 ft | 470 kts | 287° |
| 2026-05-08 10:01 | 24.05381 | 58.74165 | 39742 ft | 471 kts | 287° |
| 2026-05-08 10:01 | 24.07590 | 58.67245 | 39743 ft | 471 kts | 287° |
| 2026-05-08 10:02 | 24.09775 | 58.60392 | 39742 ft | 471 kts | 287° |
| 2026-05-08 10:02 | 24.11969 | 58.53525 | 39742 ft | 471 kts | 287° |
| 2026-05-08 10:03 | 24.14162 | 58.46639 | 39743 ft | 471 kts | 287° |
| 2026-05-08 10:03 | 24.16340 | 58.39761 | 39742 ft | 471 kts | 287° |
| 2026-05-08 10:04 | 24.18516 | 58.32869 | 39743 ft | 471 kts | 287° |
| 2026-05-08 10:04 | 24.20672 | 58.25997 | 39743 ft | 471 kts | 287° |
| 2026-05-08 10:05 | 24.22791 | 58.19247 | 39743 ft | 471 kts | 287° |
| 2026-05-08 10:05 | 24.24905 | 58.12508 | 39742 ft | 471 kts | 287° |
| 2026-05-08 10:06 | 24.27009 | 58.05798 | 39743 ft | 471 kts | 287° |
| 2026-05-08 10:06 | 24.29119 | 57.99056 | 39743 ft | 471 kts | 287° |
| 2026-05-08 10:07 | 24.31220 | 57.92327 | 39743 ft | 471 kts | 287° |
| 2026-05-08 10:07 | 24.33322 | 57.85588 | 39744 ft | 471 kts | 287° |
| 2026-05-08 10:08 | 24.35442 | 57.78778 | 39743 ft | 471 kts | 287° |
| 2026-05-08 10:08 | 24.37553 | 57.71994 | 39743 ft | 470 kts | 287° |
| 2026-05-08 10:09 | 24.39661 | 57.65202 | 39742 ft | 471 kts | 287° |
| 2026-05-08 10:09 | 24.41767 | 57.58410 | 39743 ft | 471 kts | 287° |
| 2026-05-08 10:10 | 24.43885 | 57.51562 | 39745 ft | 471 kts | 287° |
| 2026-05-08 10:10 | 24.45978 | 57.44763 | 39750 ft | 471 kts | 287° |
| 2026-05-08 10:11 | 24.48034 | 57.38074 | 39761 ft | 471 kts | 287° |
| 2026-05-08 10:11 | 24.50137 | 57.31222 | 39776 ft | 470 kts | 286° |
| 2026-05-08 10:12 | 24.52114 | 57.24757 | 39777 ft | 470 kts | 286° |
| 2026-05-08 10:12 | 24.54195 | 57.17957 | 39773 ft | 470 kts | 286° |
| 2026-05-08 10:13 | 24.56284 | 57.11130 | 39772 ft | 471 kts | 286° |
| 2026-05-08 10:13 | 24.58377 | 57.04283 | 39773 ft | 471 kts | 286° |
| 2026-05-08 10:14 | 24.60406 | 56.97642 | 39658 ft | 467 kts | 286° |
| 2026-05-08 10:14 | 24.61465 | 56.94170 | 39158 ft | 466 kts | 286° |
| 2026-05-08 10:14 | 24.62504 | 56.90754 | 38358 ft | 468 kts | 286° |
| 2026-05-08 10:15 | 24.63602 | 56.87324 | 37472 ft | 472 kts | 289° |
| 2026-05-08 10:15 | 24.64924 | 56.83944 | 36620 ft | 475 kts | 293° |
| 2026-05-08 10:15 | 24.66466 | 56.80695 | 35806 ft | 477 kts | 297° |
| 2026-05-08 10:15 | 24.68194 | 56.77483 | 34970 ft | 478 kts | 298° |